Πλησιέστερες Αναφορές METAR

 

LGTS - Thessaloniki/Makedonia-Elev 7m
Distance from station: Ν 13km
Ενημερώθηκε: 24/06/2021 07:50
Αίθριος
Αίθριος
 Ανεμος από varies
Ανεμος: varies 6 km/h
Θερμοκρασία: 26°C
Σημείο Δρόσου: 22°C
Υγρασία: 79%
Βαρόμετρο: 1016 hPa
Συνθήκες: Αίθριος
Visibility: greater than 10 km
2021/06/24 04:50 LGTS 240450Z VRB03KT CAVOK 26/22 Q1016 NOSIG
LGAV - Athens/Elef. Venizelos-Elev 94m
Distance from station: ΝΝΑ 312km
Ενημερώθηκε: 24/06/2021 07:50
Αίθριος
Αίθριος
 Ανεμος από varies
Ανεμος: varies 2 km/h
Θερμοκρασία: 27°C
Heat Index: 28°C
Σημείο Δρόσου: 19°C
Υγρασία: 62%
Βαρόμετρο: 1016 hPa
Συνθήκες: Αίθριος
Visibility: greater than 10 km
2021/06/24 04:50 LGAV 240450Z VRB01KT CAVOK 27/19 Q1016 NOSIG
 
LGAL - Alexandroupolis-Elev 3m
Distance from station: Α 251km
Ενημερώθηκε: 24/06/2021 07:50
Few Clouds
Few Clouds
 Ανεμος από calm
Ανεμος: Απνοια
Θερμοκρασία: 22°C
Σημείο Δρόσου: 20°C
Υγρασία: 88%
Βαρόμετρο: 1016 hPa
Clouds: Few Clouds
Visibility: 10 km
Cloud details: Few Clouds 1067 m
2021/06/24 04:50 LGAL 240450Z 00000KT 9999 FEW035 22/20 Q1016
LGKV - Kavala/Crysoupolis-Elev 5m
Distance from station: ΑΒΑ 144km
Ενημερώθηκε: 24/06/2021 07:50
Αίθριος
Αίθριος
 Ανεμος από ΔΝΔ
Ανεμος: ΔΝΔ 6 km/h
Θερμοκρασία: 24°C
Σημείο Δρόσου: 22°C
Υγρασία: 89%
Βαρόμετρο: 1015 hPa
Συνθήκες: Αίθριος
Visibility: greater than 10 km
2021/06/24 04:50 LGKV 240450Z 24003KT CAVOK 24/22 Q1015
 
LGSK - Skiathos Island-Elev 15m
Distance from station: ΝΝΑ 168km
Ενημερώθηκε: 24/06/2021 07:50
Αίθριος
Αίθριος
 Ανεμος από calm
Ανεμος: Απνοια
Θερμοκρασία: 26°C
Σημείο Δρόσου: 23°C
Υγρασία: 84%
Βαρόμετρο: 1015 hPa
Συνθήκες: Αίθριος
Visibility: greater than 10 km
2021/06/24 04:50 LGSK 240450Z 00000KT CAVOK 26/23 Q1015
LGLM - Limnos Island-Elev 5m
Distance from station: ΑΝΑ 210km
Ενημερώθηκε: 24/06/2021 07:50
Αίθριος
Αίθριος
 Ανεμος από calm
Ανεμος: Απνοια
Θερμοκρασία: 25°C
Σημείο Δρόσου: 22°C
Υγρασία: 83%
Βαρόμετρο: 1015 hPa
Συνθήκες: Αίθριος
Visibility: greater than 10 km
2021/06/24 04:50 LGLM 240450Z 00000KT CAVOK 25/22 Q1015
 
LGMT - Mitilini Island-Elev 17m
Distance from station: ΑΝΑ 358km
Ενημερώθηκε: 24/06/2021 07:50
Αίθριος
Αίθριος
 Ανεμος από varies
Ανεμος: varies 6 km/h
Θερμοκρασία: 25°C
Σημείο Δρόσου: 19°C
Υγρασία: 69%
Βαρόμετρο: 1015 hPa
Συνθήκες: Αίθριος
Visibility: greater than 10 km
2021/06/24 04:50 LGMT 240450Z VRB03KT CAVOK 25/19 Q1015
LGSY - Skiros Island-Elev 15m
Distance from station: ΝΑ 227km
Ενημερώθηκε: 24/06/2021 07:50
Αίθριος
Αίθριος
 Ανεμος από calm
Ανεμος: Απνοια
Θερμοκρασία: 27°C
Heat Index: 31°C
Σημείο Δρόσου: 24°C
Υγρασία: 84%
Βαρόμετρο: 1016 hPa
Συνθήκες: Αίθριος
Visibility: greater than 10 km
2021/06/24 04:50 LGSY 240450Z 00000KT CAVOK 27/24 Q1016 RMK FEW180 BLU
 
LGKZ - Kozani-Elev 628m
Distance from station: ΔΝΔ 102km
Ενημερώθηκε: 24/06/2021 07:50
Αίθριος
Αίθριος
 Ανεμος από calm
Ανεμος: Απνοια
Θερμοκρασία: 25°C
Σημείο Δρόσου: 11°C
Υγρασία: 42%
Βαρόμετρο: 1021 hPa
Συνθήκες: Αίθριος
Visibility: greater than 10 km
2021/06/24 04:50 LGKZ 240450Z 00000KT CAVOK 25/11 Q1021
LGIO - Ioannina-Elev 476m
Distance from station: ΔΝΔ 209km
Ενημερώθηκε: 24/06/2021 07:50

 Ανεμος από calm
Ανεμος: Απνοια
Θερμοκρασία: 21°C
Σημείο Δρόσου: 17°C
Υγρασία: 78%
Βαρόμετρο: 1020 hPa
2021/06/24 04:50 LGIO 240450Z AUTO 00000KT //// // ////// 21/17 Q1020 RE//
 
LGZA - Zakinthos-Elev 3m
Distance from station: ΝΝΔ 367km
Ενημερώθηκε: 24/06/2021 07:50
Αίθριος
Αίθριος
 Ανεμος από Β
Ανεμος: Β 7 km/h
Θερμοκρασία: 25°C
Σημείο Δρόσου: 22°C
Υγρασία: 83%
Βαρόμετρο: 1015 hPa
Συνθήκες: Αίθριος
Visibility: greater than 10 km
2021/06/24 04:50 LGZA 240450Z 35004KT CAVOK 25/22 Q1015
LGKR - Corfu Island-Elev 2m
Distance from station: ΔΝΔ 282km
Ενημερώθηκε: 24/06/2021 07:50
Αίθριος
Αίθριος
 Ανεμος από varies
Ανεμος: varies 6 km/h
Θερμοκρασία: 23°C
Σημείο Δρόσου: 19°C
Υγρασία: 78%
Βαρόμετρο: 1015 hPa
Συνθήκες: Αίθριος
Visibility: greater than 10 km
2021/06/24 04:50 LGKR 240450Z VRB03KT CAVOK 23/19 Q1015 NOSIG
 
LGSO - Syros Island-Elev 72m
Distance from station: ΝΝΑ 397km
Ενημερώθηκε: 24/06/2021 07:50
Αίθριος
Αίθριος
 Ανεμος από varies
Ανεμος: varies 4 km/h
Θερμοκρασία: 27°C
Heat Index: 29°C
Σημείο Δρόσου: 20°C
Υγρασία: 66%
Βαρόμετρο: 1015 hPa
Συνθήκες: Αίθριος
Visibility: greater than 10 km
2021/06/24 04:50 LGSO 240450Z VRB02KT CAVOK 27/20 Q1015
LGMK - Mikonos Island-Elev 123m
Distance from station: ΝΝΑ 412km
Ενημερώθηκε: 24/06/2021 07:50
Αίθριος
Αίθριος
 Ανεμος από ΒΒΑ
Ανεμος: ΒΒΑ 17 km/h
Θερμοκρασία: 26°C
Σημείο Δρόσου: 16°C
Υγρασία: 54%
Βαρόμετρο: 1015 hPa
Συνθήκες: Αίθριος
Visibility: greater than 10 km
2021/06/24 04:50 LGMK 240450Z 02009KT CAVOK 26/16 Q1015
 
LGSR - Santorini Island-Elev 40m
Distance from station: ΝΝΑ 520km
Ενημερώθηκε: 24/06/2021 07:50
Αίθριος
Αίθριος
 Ανεμος από calm
Ανεμος: Απνοια
Θερμοκρασία: 29°C
Heat Index: 31°C
Σημείο Δρόσου: 20°C
Υγρασία: 58%
Βαρόμετρο: 1015 hPa
Συνθήκες: Αίθριος
Visibility: greater than 10 km
2021/06/24 04:50 LGSR 240450Z 00000KT CAVOK 29/20 Q1015
LGKL - Kalamata-Elev 8m
Distance from station: Ν 405km
Ενημερώθηκε: 24/06/2021 07:50
Μερικώς νεφελώδης
Μερικώς νεφελώδης
 Ανεμος από calm
Ανεμος: Απνοια
Θερμοκρασία: 24°C
Σημείο Δρόσου: 15°C
Υγρασία: 57%
Βαρόμετρο: 1015 hPa
Clouds: Μερικώς νεφελώδης
Visibility: 9 km
2021/06/24 04:50 LGKL 240450Z 00000KT 9000 NSC 24/15 Q1015
 
LGIR - Iraklion/Crete-Elev 5m
Distance from station: ΝΝΑ 622km
Ενημερώθηκε: 24/06/2021 07:50
Αίθριος
Αίθριος
 Ανεμος από calm
Ανεμος: Απνοια
Θερμοκρασία: 25°C
Σημείο Δρόσου: 19°C
Υγρασία: 69%
Βαρόμετρο: 1014 hPa
Συνθήκες: Αίθριος
Visibility: greater than 10 km
2021/06/24 04:50 LGIR 240450Z 00000KT CAVOK 25/19 Q1014 NOSIG
LGRP - Rhodes-Elev 5m
Distance from station: ΝΑ 649km
Ενημερώθηκε: 24/06/2021 07:50
Αίθριος
Αίθριος
 Ανεμος από ΔΝΔ
Ανεμος: ΔΝΔ 17 km/h
Θερμοκρασία: 27°C
Heat Index: 29°C
Σημείο Δρόσου: 21°C
Υγρασία: 70%
Βαρόμετρο: 1011 hPa
Συνθήκες: Αίθριος
Visibility: greater than 10 km
2021/06/24 04:50 LGRP 240450Z 24009KT CAVOK 27/21 Q1011 NOSIG
 
LWOH - Ohrid/FYROM-Elev 761m
Distance from station: ΔΒΔ 188km
Ενημερώθηκε: 23/06/2021 22:00
Μη Ενημερωμένο!
Αίθριος
Αίθριος
 Ανεμος από calm
Ανεμος: Απνοια
Θερμοκρασία: 23°C
Σημείο Δρόσου: 14°C
Υγρασία: 57%
Βαρόμετρο: 1020 hPa
Συνθήκες: Αίθριος
Visibility: greater than 10 km
2021/06/23 19:00 LWOH 231900Z 00000KT CAVOK 23/14 Q1020
LBSF - Sofia/Bulgaria-Elev 595m
Distance from station: Β 227km
Ενημερώθηκε: 24/06/2021 08:00
Αίθριος
Αίθριος
 Ανεμος από ΝΑ
Ανεμος: ΝΑ 6 km/h
Θερμοκρασία: 20°C
Σημείο Δρόσου: 16°C
Υγρασία: 78%
Βαρόμετρο: 1020 hPa
Συνθήκες: Αίθριος
Visibility: greater than 10 km
2021/06/24 05:00 LBSF 240500Z 13003KT 090V170 CAVOK 20/16 Q1020 NOSIG
Σημερινά ρεκόρ Μετεωρολογικού Σταθμού
Δεν έχει σημειωθεί νέο ρεκόρ μέχρι τις 08:04 σήμερα - 24/6/2021